createdAt,value
2019-06-07T00:01:44.358Z,37.42
2019-06-07T00:04:16.101Z,37.80
2019-06-07T00:06:47.003Z,39.13
2019-06-07T00:09:21.971Z,32.15
2019-06-07T00:11:49.488Z,32.98
2019-06-07T00:14:21.148Z,39.55
2019-06-07T00:16:51.613Z,40.35
2019-06-07T00:19:21.741Z,37.78
2019-06-07T00:22:17.696Z,36.73
2019-06-07T00:24:23.858Z,40.52
2019-06-07T00:26:58.866Z,38.05
2019-06-07T00:29:26.214Z,36.20
2019-06-07T00:31:56.495Z,41.73
2019-06-07T00:34:27.711Z,38.23
2019-06-07T00:36:57.878Z,36.83
2019-06-07T00:39:29.570Z,44.73
2019-06-07T00:44:29.752Z,39.42
2019-06-07T00:47:00.047Z,41.40
2019-06-07T00:49:40.648Z,37.63
2019-06-07T00:52:03.800Z,39.78
2019-06-07T00:54:34.216Z,38.00
2019-06-07T00:57:04.934Z,41.55
2019-06-07T00:59:35.034Z,45.45
2019-06-07T01:02:05.477Z,42.40
2019-06-07T01:04:35.974Z,46.37
2019-06-07T01:07:06.192Z,45.05
2019-06-07T01:09:36.408Z,46.10
2019-06-07T01:12:07.149Z,40.75
2019-06-07T01:14:37.331Z,46.65
2019-06-07T01:17:41.703Z,44.88
2019-06-07T01:19:58.934Z,51.33
2019-06-07T01:22:29.587Z,43.13
2019-06-07T01:25:00.396Z,49.08
2019-06-07T01:27:31.001Z,45.30
2019-06-07T01:30:01.215Z,42.30
2019-06-07T01:32:31.978Z,44.05
2019-06-07T01:35:02.447Z,45.10
2019-06-07T01:37:32.503Z,39.90
2019-06-07T01:40:03.063Z,41.20
2019-06-07T01:42:33.553Z,40.08
2019-06-07T01:45:05.888Z,40.45
2019-06-07T01:47:36.045Z,47.95
2019-06-07T01:52:39.791Z,40.80
2019-06-07T01:57:48.039Z,35.73
2019-06-07T02:00:14.561Z,44.70
2019-06-07T02:05:14.785Z,44.60
2019-06-07T02:07:44.994Z,40.17
2019-06-07T02:10:15.456Z,41.10
2019-06-07T02:12:45.894Z,41.10
2019-06-07T02:15:21.273Z,37.48
2019-06-07T02:17:49.593Z,39.13
2019-06-07T02:20:20.322Z,43.45
2019-06-07T02:22:51.144Z,43.85
2019-06-07T02:25:38.278Z,42.38
2019-06-07T02:28:11.000Z,48.40
2019-06-07T02:30:50.906Z,40.05
2019-06-07T02:32:57.716Z,39.98
2019-06-07T02:35:34.767Z,39.25
2019-06-07T02:38:00.321Z,40.83
2019-06-07T02:40:36.481Z,51.00
2019-06-07T02:43:03.111Z,38.78
2019-06-07T02:45:42.544Z,39.42
2019-06-07T02:50:38.382Z,40.78
2019-06-07T02:53:06.616Z,45.65
2019-06-07T02:56:11.655Z,36.42
2019-06-07T02:58:08.936Z,38.15
2019-06-07T03:01:04.073Z,37.93
2019-06-07T03:03:19.046Z,39.45
2019-06-07T03:05:50.360Z,37.65
2019-06-07T03:08:21.061Z,32.33
2019-06-07T03:10:52.881Z,32.60
2019-06-07T03:15:54.850Z,33.35
2019-06-07T03:18:42.533Z,37.88
2019-06-07T03:21:15.457Z,32.90
2019-06-07T03:23:46.641Z,35.50
2019-06-07T03:26:17.279Z,26.27
2019-06-07T03:28:48.602Z,30.72
2019-06-07T03:31:18.856Z,31.17
2019-06-07T03:33:49.070Z,27.90
2019-06-07T03:36:25.522Z,26.50
2019-06-07T03:38:51.428Z,27.90
2019-06-07T03:41:21.650Z,27.15
2019-06-07T03:43:52.498Z,27.30
2019-06-07T03:46:22.748Z,28.42
2019-06-07T03:48:52.846Z,24.95
2019-06-07T03:51:26.936Z,27.35
2019-06-07T03:53:56.086Z,27.50
2019-06-07T03:56:28.180Z,33.02
2019-06-07T03:58:58.656Z,27.17
2019-06-07T04:01:30.746Z,21.73
2019-06-07T04:04:02.044Z,27.67
2019-06-07T04:06:34.026Z,24.23
2019-06-07T04:09:05.876Z,27.93
2019-06-07T04:11:40.421Z,25.08
2019-06-07T04:16:41.702Z,24.92
2019-06-07T04:19:09.160Z,25.02
2019-06-07T04:21:42.930Z,24.65
2019-06-07T04:24:13.504Z,27.52
2019-06-07T04:26:46.641Z,35.30
2019-06-07T04:29:34.051Z,33.38
2019-06-07T04:31:47.826Z,36.88
2019-06-07T04:34:18.038Z,44.58
2019-06-07T04:36:58.448Z,44.03
2019-06-07T04:39:22.268Z,40.67
2019-06-07T04:41:53.940Z,40.92
2019-06-07T04:46:57.422Z,43.20
2019-06-07T04:49:29.949Z,39.33
2019-06-07T04:52:03.756Z,36.58
2019-06-07T04:54:35.736Z,39.78
2019-06-07T04:57:05.819Z,38.33
2019-06-07T05:02:09.319Z,38.55
2019-06-07T05:04:42.402Z,37.00
2019-06-07T05:07:13.179Z,34.08
2019-06-07T05:09:43.537Z,44.00
2019-06-07T05:12:13.784Z,36.65
2019-06-07T05:14:44.442Z,30.55
2019-06-07T05:17:15.763Z,30.20
2019-06-07T05:19:45.933Z,25.35
2019-06-07T05:22:16.092Z,27.55
2019-06-07T05:24:46.237Z,25.32
2019-06-07T05:27:16.412Z,26.10
2019-06-07T05:30:08.782Z,21.35
2019-06-07T05:32:18.887Z,29.20
2019-06-07T05:34:48.991Z,25.43
2019-06-07T05:37:19.272Z,24.65
2019-06-07T05:39:50.518Z,25.92
2019-06-07T05:42:21.221Z,21.68
2019-06-07T05:44:52.052Z,33.92
2019-06-07T05:47:22.266Z,25.73
2019-06-07T05:49:52.356Z,22.55
2019-06-07T05:52:22.919Z,23.38
2019-06-07T05:54:53.314Z,22.95
2019-06-07T05:57:23.410Z,32.05
2019-06-07T05:59:53.803Z,25.80
2019-06-07T06:02:25.069Z,28.15
2019-06-07T06:07:24.700Z,31.48
2019-06-07T06:09:54.817Z,28.25
2019-06-07T06:12:35.169Z,29.48
2019-06-07T06:14:58.105Z,32.93
2019-06-07T06:17:28.961Z,32.20
2019-06-07T06:19:59.187Z,29.80
2019-06-07T06:22:30.425Z,26.07
2019-06-07T06:25:31.110Z,22.50
2019-06-07T06:30:08.136Z,27.52
2019-06-07T06:32:45.567Z,24.80
2019-06-07T06:35:10.725Z,22.20
2019-06-07T06:37:46.468Z,26.77
2019-06-07T06:40:16.237Z,23.80
2019-06-07T06:42:49.064Z,19.57
2019-06-07T06:45:19.194Z,18.57
2019-06-07T06:47:50.677Z,19.12
2019-06-07T06:50:21.483Z,20.17
2019-06-07T06:52:54.716Z,20.00
2019-06-07T06:55:23.848Z,19.40
2019-06-07T06:57:54.041Z,19.50
2019-06-07T07:01:04.896Z,22.52
2019-06-07T07:05:56.945Z,18.40
2019-06-07T07:08:27.257Z,25.92
2019-06-07T07:10:57.419Z,19.12
2019-06-07T07:13:29.132Z,21.68
2019-06-07T07:18:29.125Z,22.67
2019-06-07T07:21:00.577Z,21.93
2019-06-07T07:23:30.835Z,24.98
2019-06-07T07:26:02.254Z,18.27
2019-06-07T07:28:32.485Z,21.33
2019-06-07T07:31:04.483Z,17.25
2019-06-07T07:34:20.707Z,17.62
2019-06-07T07:36:28.146Z,18.57
2019-06-07T07:38:39.506Z,20.95
2019-06-07T07:41:15.539Z,24.47
2019-06-07T07:43:45.782Z,17.25
2019-06-07T07:46:31.552Z,26.07
2019-06-07T07:48:48.553Z,28.02
2019-06-07T07:51:18.920Z,21.97
2019-06-07T07:53:59.154Z,17.02
2019-06-07T07:56:20.983Z,22.07
2019-06-07T07:58:57.935Z,20.35
2019-06-07T08:01:23.147Z,19.85
2019-06-07T08:03:54.972Z,23.77
2019-06-07T08:06:25.240Z,20.65
2019-06-07T08:08:57.064Z,19.55
2019-06-07T08:11:30.037Z,20.68
2019-06-07T08:14:00.269Z,20.32
2019-06-07T08:16:30.492Z,24.63
2019-06-07T08:19:04.047Z,20.70
2019-06-07T08:21:33.147Z,23.00
2019-06-07T08:24:05.416Z,20.72
2019-06-07T08:29:05.577Z,20.12
2019-06-07T08:31:36.140Z,21.50
2019-06-07T08:34:06.456Z,20.67
2019-06-07T08:36:42.348Z,24.32
2019-06-07T08:39:09.013Z,21.68
2019-06-07T08:41:53.514Z,29.15
2019-06-07T08:44:23.211Z,18.87
2019-06-07T08:46:43.901Z,14.38
2019-06-07T08:49:14.061Z,16.57
2019-06-07T08:51:44.303Z,19.92
2019-06-07T08:54:22.443Z,18.25
2019-06-07T08:56:46.356Z,18.52
2019-06-07T08:59:16.515Z,25.00
2019-06-07T09:01:47.222Z,27.80
2019-06-07T09:04:17.360Z,16.27
2019-06-07T09:07:06.661Z,16.90
2019-06-07T09:09:19.662Z,15.48
2019-06-07T09:11:49.816Z,14.63
2019-06-07T09:14:19.946Z,17.95
2019-06-07T09:16:51.497Z,19.48
2019-06-07T09:21:50.853Z,23.57
2019-06-07T09:24:21.141Z,16.80
2019-06-07T09:26:51.433Z,15.08
2019-06-07T09:29:21.652Z,15.23
2019-06-07T09:31:53.696Z,17.50
2019-06-07T09:34:26.002Z,13.48
2019-06-07T09:36:58.260Z,21.02
2019-06-07T09:39:28.247Z,13.30
2019-06-07T09:42:00.740Z,18.77
2019-06-07T09:44:31.124Z,37.98
2019-06-07T09:47:29.585Z,19.48
2019-06-07T09:49:33.914Z,18.73
2019-06-07T09:52:09.114Z,17.52
2019-06-07T09:55:05.931Z,19.32
2019-06-07T09:57:16.379Z,13.00
2019-06-07T09:59:39.724Z,10.78
2019-06-07T10:02:13.739Z,13.83
2019-06-07T10:04:43.388Z,11.25
2019-06-07T10:07:30.724Z,18.20
2019-06-07T10:12:19.010Z,12.93
2019-06-07T10:14:49.134Z,16.48
2019-06-07T10:17:19.623Z,15.80
2019-06-07T10:19:49.801Z,15.60
2019-06-07T10:22:19.942Z,16.40
2019-06-07T10:24:50.165Z,10.70
2019-06-07T10:29:54.065Z,15.80
2019-06-07T10:32:24.713Z,13.70
2019-06-07T10:34:54.906Z,16.47
2019-06-07T10:37:27.115Z,13.35
2019-06-07T10:39:57.018Z,14.95
2019-06-07T10:42:27.256Z,14.40
2019-06-07T10:44:57.443Z,15.03
2019-06-07T10:47:27.986Z,16.50
2019-06-07T10:49:58.221Z,15.23
2019-06-07T10:52:28.303Z,12.18
2019-06-07T10:54:58.620Z,14.23
2019-06-07T10:57:28.733Z,13.90
2019-06-07T10:59:58.960Z,12.55
2019-06-07T11:02:29.414Z,12.82
2019-06-07T11:04:59.624Z,11.48
2019-06-07T11:07:30.007Z,12.85
2019-06-07T11:10:07.340Z,12.47
2019-06-07T11:12:32.073Z,11.90
2019-06-07T11:15:02.314Z,14.87
2019-06-07T11:17:32.702Z,13.30
2019-06-07T11:20:03.586Z,17.82
2019-06-07T11:22:33.668Z,16.27
2019-06-07T11:25:06.905Z,15.68
2019-06-07T11:27:37.179Z,12.55
2019-06-07T11:30:10.542Z,21.42
2019-06-07T11:32:41.421Z,18.05
2019-06-07T11:35:13.972Z,16.35
2019-06-07T11:37:45.134Z,17.77
2019-06-07T11:40:29.749Z,19.07
2019-06-07T11:42:52.555Z,18.45
2019-06-07T11:45:21.374Z,27.25
2019-06-07T11:47:52.111Z,17.87
2019-06-07T11:50:22.425Z,22.55
2019-06-07T11:52:52.586Z,18.17
2019-06-07T11:55:22.791Z,21.25
2019-06-07T11:57:52.934Z,17.87
2019-06-07T12:00:25.042Z,20.88
2019-06-07T12:02:55.367Z,18.32
2019-06-07T12:05:25.564Z,26.10
2019-06-07T12:07:57.169Z,25.95
2019-06-07T12:10:39.670Z,28.83
2019-06-07T12:12:59.576Z,24.10
2019-06-07T12:15:29.711Z,16.40
2019-06-07T12:17:59.887Z,20.97
2019-06-07T12:20:30.271Z,9.50
2019-06-07T12:23:00.353Z,12.73
2019-06-07T12:25:30.530Z,10.10
2019-06-07T12:28:00.663Z,18.70
2019-06-07T12:30:30.913Z,15.05
2019-06-07T12:33:01.365Z,17.75
2019-06-07T12:35:31.603Z,20.12
2019-06-07T12:38:01.747Z,21.73
2019-06-07T12:40:32.506Z,15.48
2019-06-07T12:43:03.316Z,22.45
2019-06-07T12:45:44.436Z,16.90
2019-06-07T12:48:06.008Z,19.90
2019-06-07T12:50:43.150Z,12.82
2019-06-07T12:53:08.419Z,18.82
2019-06-07T12:55:39.572Z,16.02
2019-06-07T12:58:09.840Z,20.90
2019-06-07T13:00:40.114Z,17.55
2019-06-07T13:03:10.542Z,16.97
2019-06-07T13:05:40.854Z,21.85
2019-06-07T13:08:11.145Z,18.17
2019-06-07T13:10:41.361Z,23.67
2019-06-07T13:13:11.504Z,16.75
2019-06-07T13:15:41.705Z,17.87
2019-06-07T13:18:15.020Z,16.25
2019-06-07T13:20:44.144Z,16.90
2019-06-07T13:23:14.275Z,17.48
2019-06-07T13:25:46.665Z,15.38
2019-06-07T13:28:17.254Z,17.82
2019-06-07T13:30:48.199Z,17.67
2019-06-07T13:33:19.099Z,16.05
2019-06-07T13:35:49.327Z,20.00
2019-06-07T13:38:26.731Z,14.73
2019-06-07T13:40:57.137Z,15.80
2019-06-07T13:43:28.782Z,17.90
2019-06-07T13:45:58.968Z,16.45
2019-06-07T13:48:30.861Z,19.05
2019-06-07T13:51:00.976Z,15.28
2019-06-07T13:53:31.293Z,16.02
2019-06-07T13:56:01.438Z,14.45
2019-06-07T13:58:32.912Z,19.48
2019-06-07T14:03:33.881Z,19.32
2019-06-07T14:06:05.047Z,15.38
2019-06-07T14:08:35.181Z,15.90
2019-06-07T14:11:05.425Z,14.60
2019-06-07T14:13:35.720Z,18.27
2019-06-07T14:16:06.050Z,12.82
2019-06-07T14:18:39.746Z,16.20
2019-06-07T14:21:09.602Z,20.02
2019-06-07T14:23:48.991Z,18.48
2019-06-07T14:26:14.439Z,17.70
2019-06-07T14:28:45.554Z,16.35
2019-06-07T14:31:15.765Z,19.80
2019-06-07T14:33:46.439Z,16.35
2019-06-07T14:36:16.712Z,17.17
2019-06-07T14:38:48.050Z,20.43
2019-06-07T14:41:18.371Z,15.75
2019-06-07T14:43:48.652Z,14.15
2019-06-07T14:46:19.002Z,13.75
2019-06-07T14:48:49.478Z,16.80
2019-06-07T14:51:19.637Z,14.78
2019-06-07T14:53:49.975Z,13.62
2019-06-07T14:56:20.192Z,15.88
2019-06-07T14:58:50.278Z,19.62
2019-06-07T15:01:20.506Z,12.93
2019-06-07T15:03:50.950Z,17.35
2019-06-07T15:06:21.295Z,15.08
2019-06-07T15:08:51.811Z,17.85
2019-06-07T15:11:22.208Z,14.47
2019-06-07T15:13:54.138Z,11.00
2019-06-07T15:16:24.353Z,14.15
2019-06-07T15:18:54.793Z,14.00
2019-06-07T15:21:25.036Z,11.80
2019-06-07T15:23:55.166Z,12.45
2019-06-07T15:26:25.290Z,14.28
2019-06-07T15:28:57.526Z,12.50
2019-06-07T15:31:29.900Z,11.25
2019-06-07T15:34:00.718Z,10.15
2019-06-07T15:36:30.804Z,11.68
2019-06-07T15:39:01.049Z,8.88
2019-06-07T15:41:33.112Z,10.38
2019-06-07T15:44:04.948Z,8.18
2019-06-07T15:46:35.644Z,8.50
2019-06-07T15:49:07.137Z,10.08
2019-06-07T15:51:38.536Z,13.75
2019-06-07T15:54:08.979Z,9.33
2019-06-07T15:56:39.216Z,8.25
2019-06-07T15:59:09.336Z,9.45
2019-06-07T16:01:42.053Z,9.85
2019-06-07T16:04:12.718Z,10.68
2019-06-07T16:06:43.528Z,6.97
2019-06-07T16:09:14.143Z,9.30
2019-06-07T16:11:44.478Z,10.72
2019-06-07T16:14:14.938Z,10.58
2019-06-07T16:16:45.105Z,7.90
2019-06-07T16:19:15.370Z,10.00
2019-06-07T16:21:45.478Z,7.95
2019-06-07T16:24:15.635Z,8.33
2019-06-07T16:26:45.769Z,12.05
2019-06-07T16:29:16.017Z,10.60
2019-06-07T16:31:46.223Z,8.55
2019-06-07T16:34:17.713Z,10.45
2019-06-07T16:36:48.858Z,9.85
2019-06-07T16:39:19.934Z,11.12
2019-06-07T16:41:50.205Z,10.78
2019-06-07T16:44:20.404Z,13.98
2019-06-07T16:46:50.732Z,8.35
2019-06-07T16:49:21.727Z,8.30
2019-06-07T16:54:21.693Z,10.13
2019-06-07T16:56:51.875Z,9.35
2019-06-07T16:59:22.145Z,10.90
2019-06-07T17:01:52.279Z,9.73
2019-06-07T17:04:22.562Z,8.60
2019-06-07T17:06:52.957Z,8.98
2019-06-07T17:09:23.145Z,9.43
2019-06-07T17:11:53.329Z,17.10
2019-06-07T17:14:23.468Z,24.02
2019-06-07T17:16:53.772Z,10.13
2019-06-07T17:19:24.196Z,9.03
2019-06-07T17:21:54.308Z,9.05
2019-06-07T17:24:26.863Z,11.18
2019-06-07T17:26:57.075Z,9.13
2019-06-07T17:29:27.324Z,9.40
2019-06-07T17:31:56.584Z,9.73
2019-06-07T17:34:26.951Z,11.88
2019-06-07T17:36:57.125Z,11.03
2019-06-07T17:39:27.263Z,9.78
2019-06-07T17:42:02.179Z,8.43
2019-06-07T17:44:29.238Z,13.15
2019-06-07T17:46:59.354Z,9.75
2019-06-07T17:49:31.374Z,10.15
2019-06-07T17:52:01.549Z,11.38
2019-06-07T17:54:31.702Z,11.97
2019-06-07T17:57:01.857Z,13.93
2019-06-07T17:59:32.004Z,10.48
2019-06-07T18:02:14.236Z,11.88
2019-06-07T18:04:34.482Z,12.47
2019-06-07T18:07:04.990Z,12.98
2019-06-07T18:09:36.290Z,16.10
2019-06-07T18:12:06.572Z,17.37
2019-06-07T18:14:37.422Z,12.63
2019-06-07T18:17:07.572Z,37.90
2019-06-07T18:19:38.184Z,14.45
2019-06-07T18:22:11.316Z,34.17
2019-06-07T18:24:41.556Z,27.65
2019-06-07T18:27:11.894Z,18.62
2019-06-07T18:29:42.008Z,48.60
2019-06-07T18:32:13.581Z,27.60
2019-06-07T18:34:44.604Z,17.23
2019-06-07T18:37:16.119Z,21.95
2019-06-07T18:39:47.026Z,19.02
2019-06-07T18:42:17.649Z,20.30
2019-06-07T18:44:48.929Z,18.20
2019-06-07T18:47:19.332Z,18.60
2019-06-07T18:49:51.194Z,18.48
2019-06-07T18:52:23.320Z,22.67
2019-06-07T18:54:54.977Z,17.75
2019-06-07T18:59:54.904Z,17.12
2019-06-07T19:02:25.221Z,16.07
2019-06-07T19:04:58.330Z,18.98
2019-06-07T19:07:28.972Z,22.13
2019-06-07T19:09:59.547Z,17.10
2019-06-07T19:12:29.909Z,18.52
2019-06-07T19:15:00.215Z,19.37
2019-06-07T19:17:30.519Z,14.35
2019-06-07T19:20:01.118Z,27.05
2019-06-07T19:22:31.496Z,16.17
2019-06-07T19:25:04.245Z,19.65
2019-06-07T19:27:34.726Z,14.23
2019-06-07T19:30:07.381Z,20.62
2019-06-07T19:32:39.947Z,17.25
2019-06-07T19:35:12.294Z,16.75
2019-06-07T19:37:42.782Z,18.70
2019-06-07T19:40:13.827Z,17.98
2019-06-07T19:42:44.246Z,18.02
2019-06-07T19:45:30.383Z,12.95
2019-06-07T19:47:48.683Z,16.30
2019-06-07T19:50:20.950Z,19.25
2019-06-07T19:52:53.181Z,13.98
2019-06-07T19:55:23.553Z,14.63
2019-06-07T19:57:55.478Z,16.93
2019-06-07T20:00:26.130Z,17.42
2019-06-07T20:02:57.909Z,29.23
2019-06-07T20:05:28.541Z,14.78
2019-06-07T20:07:58.853Z,15.40
2019-06-07T20:10:29.137Z,14.43
2019-06-07T20:13:00.697Z,12.95
2019-06-07T20:18:01.313Z,13.55
2019-06-07T20:20:31.871Z,19.40
2019-06-07T20:23:03.047Z,13.93
2019-06-07T20:25:34.381Z,16.75
2019-06-07T20:28:05.534Z,13.10
2019-06-07T20:30:37.617Z,16.05
2019-06-07T20:33:08.251Z,10.90
2019-06-07T20:35:40.411Z,13.22
2019-06-07T20:38:13.221Z,12.10
2019-06-07T20:40:43.371Z,13.22
2019-06-07T20:43:13.461Z,12.53
2019-06-07T20:45:43.607Z,13.40
2019-06-07T20:48:13.767Z,14.03
2019-06-07T20:50:44.494Z,12.65
2019-06-07T20:53:16.084Z,12.98
2019-06-07T20:58:15.326Z,17.20
2019-06-07T21:00:45.489Z,13.50
2019-06-07T21:03:15.715Z,16.17
2019-06-07T21:05:46.714Z,13.43
2019-06-07T21:08:17.293Z,15.15
2019-06-07T21:10:47.409Z,15.65
2019-06-07T21:13:17.579Z,16.02
2019-06-07T21:15:49.226Z,12.15
2019-06-07T21:18:20.213Z,19.95
2019-06-07T21:20:50.765Z,18.77
2019-06-07T21:23:21.995Z,18.00
2019-06-07T21:25:52.139Z,12.63
2019-06-07T21:28:22.356Z,16.93
2019-06-07T21:30:52.596Z,12.75
2019-06-07T21:33:22.677Z,12.65
2019-06-07T21:35:53.322Z,15.45
2019-06-07T21:38:23.531Z,16.07
2019-06-07T21:40:53.668Z,14.00
2019-06-07T21:43:23.966Z,12.58
2019-06-07T21:46:04.683Z,11.80
2019-06-07T21:48:25.938Z,14.95
2019-06-07T21:50:56.660Z,13.43
2019-06-07T21:53:30.000Z,13.32
2019-06-07T21:56:00.066Z,12.33
2019-06-07T21:58:30.156Z,14.33
2019-06-07T22:01:06.750Z,14.43
2019-06-07T22:03:40.125Z,13.10
2019-06-07T22:06:11.708Z,16.70
2019-06-07T22:11:12.325Z,14.53
2019-06-07T22:13:42.715Z,12.35
2019-06-07T22:16:26.247Z,13.93
2019-06-07T22:18:44.839Z,15.28
2019-06-07T22:21:16.564Z,15.43
2019-06-07T22:26:15.941Z,16.25
2019-06-07T22:28:46.891Z,13.25
2019-06-07T22:31:17.052Z,15.78
2019-06-07T22:33:47.154Z,14.70
2019-06-07T22:36:17.905Z,15.15
2019-06-07T22:38:49.264Z,13.83
2019-06-07T22:41:19.375Z,14.58
2019-06-07T22:43:49.505Z,13.78
2019-06-07T22:46:19.872Z,17.02
2019-06-07T22:48:51.304Z,15.38
2019-06-07T22:51:21.952Z,19.42
2019-06-07T22:53:52.047Z,15.58
2019-06-07T22:56:23.826Z,18.00
2019-06-07T23:01:23.629Z,17.17
2019-06-07T23:03:53.826Z,16.50
2019-06-07T23:06:24.273Z,15.23
2019-06-07T23:08:54.426Z,23.83
2019-06-07T23:11:26.228Z,19.67
2019-06-07T23:13:56.634Z,20.35
2019-06-07T23:16:26.800Z,17.10
2019-06-07T23:18:57.313Z,18.57
2019-06-07T23:21:27.753Z,16.70
2019-06-07T23:23:57.883Z,21.75
2019-06-07T23:26:28.028Z,22.13
2019-06-07T23:28:58.258Z,17.75
2019-06-07T23:31:28.469Z,19.10
2019-06-07T23:33:58.608Z,16.15
2019-06-07T23:36:29.259Z,20.70
2019-06-07T23:38:59.441Z,20.43
2019-06-07T23:41:29.591Z,22.27
2019-06-07T23:43:59.685Z,18.73
2019-06-07T23:46:29.868Z,16.70
2019-06-07T23:48:59.971Z,20.85
2019-06-07T23:51:30.634Z,20.52
2019-06-07T23:54:00.964Z,20.88
2019-06-07T23:56:31.716Z,20.00
2019-06-07T23:59:01.752Z,23.52
